Grace Hill, Iowa
Current Conditions -  °F | °C
As of 4:55 PM on Tuesday 27 Jan 2015 (Local Time) from KAWG Reporting Station
Overcast Overcast  
Wind Chill: -4°   Ceiling: 1500
Heat Index:   Visibility: 10mi
Dew Point:   Wind: 9mph
Humidity: 100%   Direction: 80°E
Pressure: 30.21"   Gusts: NA
Location:  41.3124°N, 91.7455°W
Report Text: KAWG 272255Z AUTO 08008KT 10SM OVC015 M00/M00 A3021 RMK AO2
Loading
Personal Weather Stations






























Interactive Weather Map New forecast layout! Learn more

10-Day Weather Forecast

Advertisements
Track Severe Weather on mobile